Latest Coastal Weather Observations for Yanakie

IDV60701

Issued at 7:51 am EST Thursday 3 September 2015 (issued every 10 minutes, with the page automatically refreshed every 10 minutes)

About coastal observations | Map of coastal stations | Coastal observations for VIC | Marine services | Other Formats
Station Details ID: 085301 Name: YANAKIE Lat: -38.81 Lon: 146.19 Height: 13.3 m
Data from the previous 72 hours. | See also: Recent months at Yanakie
Date/Time
EST
Temp

°C
Wind Pressure Rain
since 9am
mm
Weather Cloud Vis
km
Sea
Height
m
Swell
Dir
 
Speed
knots
Gust
knots
hPa Trend Height
m
Period
s
Dir
03/07:30am 7.8 SW 2 3 1010.4 - 0.0 - - - - - - -
03/07:00am 7.9 CALM 0 0 1009.8 - 0.0 - - - - - - -
03/06:30am 8.2 S 2 3 1009.5 - 0.0 - - - - - - -
03/06:00am 8.2 CALM 0 1 1009.1 - 0.0 - - - - - - -
03/05:30am 8.8 NE 2 3 1008.9 - 0.0 - - - - - - -
03/05:00am 9.0 S 5 6 1008.5 - 0.0 - - - - - - -
03/04:30am 8.1 SSE 3 4 1008.3 - 0.0 - - - - - - -
03/04:00am 8.3 SSE 5 7 1007.8 - 0.0 - - - - - - -
03/03:30am 7.1 SSW 4 6 1007.4 - 0.0 - - - - - - -
03/03:00am 5.1 SSW 4 5 1007.8 - 0.0 - - - - - - -
03/02:30am 5.2 CALM 0 0 1008.0 - 0.0 - - - - - - -
03/02:00am 6.3 CALM 0 0 1008.3 - 0.0 - - - - - - -
03/01:30am 5.3 CALM 0 0 1008.3 - 0.0 - - - - - - -
03/01:00am 6.2 N 1 2 1008.2 - 0.0 - - - - - - -
03/12:30am 6.9 CALM 0 0 1008.3 - 0.0 - - - - - - -
03/12:00am 7.5 CALM 0 1 1008.2 - 0.0 - - - - - - -
 
Date/Time
EST
Temp

°C
Wind Pressure Rain
since 9am
mm
Weather Cloud Vis
km
Sea
Height
m
Swell
Dir
 
Speed
knots
Gust
knots
hPa Trend Height
m
Period
s
Dir
02/11:30pm 8.4 CALM 0 2 1008.4 - 0.0 - - - - - - -
02/11:00pm 10.2 ENE 3 4 1008.6 - 0.0 - - - - - - -
02/10:30pm 10.2 E 3 4 1008.8 - 0.0 - - - - - - -
02/10:00pm 10.1 ENE 2 3 1009.0 - 0.0 - - - - - - -
02/09:30pm 10.6 E 3 5 1008.9 - 0.0 - - - - - - -
02/09:00pm 11.2 E 5 8 1008.9 - 0.0 - - - - - - -
02/08:30pm 11.4 ENE 7 11 1009.1 - 0.0 - - - - - - -
02/08:00pm 11.3 ENE 6 10 1009.2 - 0.0 - - - - - - -
02/07:30pm 11.2 E 7 11 1008.9 - 0.0 - - - - - - -
02/07:00pm 10.9 E 6 9 1008.8 - 0.0 - - - - - - -
02/06:30pm 10.8 E 7 10 1008.7 - 0.0 - - - - - - -
02/06:00pm 10.6 E 6 9 1008.7 - 0.0 - - - - - - -
02/05:30pm 11.2 E 8 11 1008.3 - 0.0 - - - - - - -
02/05:00pm 11.7 E 8 13 1008.1 - 0.0 - - - - - - -
02/04:30pm 13.3 E 9 14 1008.3 - 0.0 - - - - - - -
02/04:00pm 14.2 ESE 9 13 1008.3 - 0.0 - - - - - - -
02/03:30pm 14.2 ESE 10 15 1008.3 - 0.0 - - - - - - -
02/03:00pm 15.6 ESE 9 14 1008.6 - 0.0 - - - - - - -
02/02:30pm 15.2 ESE 11 15 1008.9 - 0.0 - - - - - - -
02/02:00pm 15.3 E 8 11 1009.2 - 0.0 - - - - - - -
02/01:30pm 16.1 E 5 7 1009.8 - 0.0 - - - - - - -
02/01:00pm 16.2 E 7 11 1010.0 - 0.0 - - - - - - -
02/12:30pm 16.2 ENE 8 12 1010.6 - 0.0 - - - - - - -
02/12:00pm 14.9 ENE 8 11 1011.2 - 0.0 - - - - - - -
02/11:30am 14.2 ENE 6 10 1011.6 - 0.0 - - - - - - -
02/11:00am 14.5 ENE 5 7 1012.1 - 0.0 - - - - - - -
02/10:30am 12.3 NE 5 7 1012.5 - 0.0 - - - - - - -
02/10:00am 12.3 NE 5 7 1012.5 - 0.0 - - - - - - -
02/09:30am 11.4 ENE 6 9 1012.7 - 0.0 - - - - - - -
02/09:00am 10.6 ENE 6 8 1013.1 - 0.0 - - - - - - -
02/08:30am 10.1 ENE 6 9 1013.1 - 0.0 - - - - - - -
02/08:00am 9.2 ENE 6 7 1013.0 - 0.0 - - - - - - -
02/07:30am 8.1 NE 5 7 1013.2 - 0.0 - - - - - - -
02/07:00am 6.9 NE 5 7 1013.3 - 0.0 - - - - - - -
02/06:30am 6.3 NE 5 7 1013.0 - 0.0 - - - - - - -
02/06:00am 6.5 NE 5 6 1013.3 - 0.0 - - - - - - -
02/05:30am 6.3 ENE 5 6 1013.4 - 0.0 - - - - - - -
02/05:00am 6.3 NE 5 6 1013.2 - 0.0 - - - - - - -
02/04:30am 6.5 ENE 4 6 1013.0 - 0.0 - - - - - - -
02/04:00am 6.3 ENE 5 7 1013.0 - 0.0 - - - - - - -
02/03:30am 5.9 ENE 2 4 1013.2 - 0.0 - - - - - - -
02/03:00am 6.4 ENE 4 5 1013.3 - 0.0 - - - - - - -
02/02:30am 6.6 ENE 5 7 1013.7 - 0.0 - - - - - - -
02/02:00am 6.7 ENE 5 7 1014.2 - 0.0 - - - - - - -
02/01:30am 7.1 ENE 6 9 1014.1 - 0.0 - - - - - - -
02/01:00am 6.9 NE 5 7 1014.2 - 0.0 - - - - - - -
02/12:30am 6.7 NE 4 6 1014.4 - 0.0 - - - - - - -
02/12:00am 7.3 NE 6 8 1014.4 - 0.0 - - - - - - -
 
Date/Time
EST
Temp

°C
Wind Pressure Rain
since 9am
mm
Weather Cloud Vis
km
Sea
Height
m
Swell
Dir
 
Speed
knots
Gust
knots
hPa Trend Height
m
Period
s
Dir
01/11:30pm 7.2 NE 5 7 1014.8 - 0.0 - - - - - - -
01/11:00pm 6.7 NE 4 7 1015.0 - 0.0 - - - - - - -
01/10:30pm 6.7 NE 4 7 1015.2 - 0.0 - - - - - - -
01/10:00pm 6.3 NE 5 7 1015.3 - 0.0 - - - - - - -
01/09:30pm 5.3 NE 4 5 1015.2 - 0.0 - - - - - - -
01/09:00pm 4.6 NNE 4 6 1015.2 - 0.0 - - - - - - -
01/08:30pm 4.4 N 3 5 1015.2 - 0.0 - - - - - - -
01/08:00pm 4.4 E 3 5 1014.9 - 0.0 - - - - - - -
01/07:30pm 4.6 ESE 3 4 1015.0 - 0.0 - - - - - - -
01/07:00pm 4.0 CALM 0 2 1014.8 - 0.0 - - - - - - -
01/06:30pm 4.9 CALM 0 0 1015.0 - 0.0 - - - - - - -
01/06:00pm 6.3 CALM 0 1 1014.7 - 0.0 - - - - - - -
01/05:30pm 8.6 S 3 4 1014.2 - 0.0 - - - - - - -
01/05:00pm 10.3 SSW 4 5 1014.3 - 0.0 - - - - - - -
01/04:30pm 11.0 S 5 7 1014.1 - 0.0 - - - - - - -
01/04:00pm 11.6 S 6 9 1014.2 - 0.0 - - - - - - -
01/03:30pm 11.8 S 7 10 1014.5 - 0.0 - - - - - - -
01/03:00pm 12.2 SSW 8 11 1015.1 - 0.0 - - - - - - -
01/02:30pm 12.9 SSW 8 12 1015.3 - 0.0 - - - - - - -
01/02:00pm 13.4 SSW 7 9 1015.4 - 0.0 - - - - - - -
01/01:30pm 12.9 SW 8 11 1015.7 - 0.0 - - - - - - -
01/01:00pm 13.1 SW 7 9 1016.0 - 0.0 - - - - - - -
01/12:30pm 12.6 SW 5 9 1016.2 - 0.0 - - - - - - -
01/12:00pm 11.7 WSW 5 9 1016.7 - 0.0 - - - - - - -
01/11:30am 10.7 WSW 5 7 1016.9 - 0.0 - - - - - - -
01/11:00am 10.8 W 4 8 1017.2 - 0.0 - - - - - - -
01/10:30am 10.6 WSW 4 8 1017.1 - 0.0 - - - - - - -
01/10:00am 10.7 W 5 12 1017.1 - 0.0 - - - - - - -
01/09:30am 11.2 SW 3 5 1017.0 - 0.0 - - - - - - -
01/09:00am 10.5 WNW 3 5 1017.0 - 0.0 - - - - - - -
01/08:30am 9.2 WNW 2 5 1017.2 - 0.0 - - - - - - -
01/08:00am 8.0 WNW 2 3 1017.0 - 0.0 - - - - - - -
01/07:30am 6.2 NW 3 4 1016.8 - 0.0 - - - - - - -
01/07:00am 5.8 W 3 5 1016.7 - 0.0 - - - - - - -
01/06:30am 6.3 WSW 3 5 1016.6 - 0.0 - - - - - - -
01/06:00am 6.1 WNW 3 5 1016.5 - 0.0 - - - - - - -
01/05:30am 5.5 NW 1 2 1016.6 - 0.0 - - - - - - -
01/05:00am 4.1 WSW 1 2 1016.6 - 0.0 - - - - - - -
01/04:30am 3.1 WNW 2 3 1016.7 - 0.0 - - - - - - -
01/04:00am 2.5 NW 3 3 1016.7 - 0.0 - - - - - - -
01/03:30am 2.1 CALM 0 0 1016.8 - 0.0 - - - - - - -
01/03:00am 2.4 CALM 0 0 1017.1 - 0.0 - - - - - - -
01/02:30am 2.4 CALM 0 0 1017.4 - 0.0 - - - - - - -
01/02:00am 3.1 CALM 0 0 1017.7 - 0.0 - - - - - - -
01/01:30am 2.9 WNW 1 3 1017.9 - 0.0 - - - - - - -
01/01:00am 2.5 CALM 0 3 1018.0 - 0.0 - - - - - - -
01/12:30am 3.6 CALM 0 0 1018.2 - 0.0 - - - - - - -
01/12:00am 4.0 CALM 0 0 1018.2 - 0.0 - - - - - - -
 
Date/Time
EST
Temp

°C
Wind Pressure Rain
since 9am
mm
Weather Cloud Vis
km
Sea
Height
m
Swell
Dir
 
Speed
knots
Gust
knots
hPa Trend Height
m
Period
s
Dir
31/11:30pm 4.7 CALM 0 0 1018.3 - 0.0 - - - - - - -
31/11:00pm 5.7 CALM 0 0 1018.4 - 0.0 - - - - - - -
31/10:30pm 6.7 NNW 1 2 1018.6 - 0.0 - - - - - - -
31/10:00pm 6.0 CALM 0 0 1019.0 - 0.0 - - - - - - -
31/09:30pm 6.6 CALM 0 0 1019.0 - 0.0 - - - - - - -
31/09:00pm 6.7 S 2 2 1019.1 - 0.0 - - - - - - -
31/08:30pm 7.1 S 3 4 1019.0 - 0.0 - - - - - - -
31/08:00pm 7.0 SSW 3 5 1018.8 - 0.0 - - - - - - -
31/07:30pm 7.7 SSW 5 6 1018.8 - 0.0 - - - - - - -
31/07:00pm 8.4 SSW 4 7 1018.7 - 0.0 - - - - - - -
31/06:30pm 8.1 SSW 5 7 1018.7 - 0.0 - - - - - - -
31/06:00pm 8.5 SSW 5 6 1018.8 - 0.0 - - - - - - -
31/05:30pm 9.3 SSW 6 9 1018.8 - 0.0 - - - - - - -
31/05:00pm 10.1 SSW 7 9 1018.9 - 0.0 - - - - - - -
31/04:30pm 10.8 SSW 7 10 1018.7 - 0.0 - - - - - - -
31/04:00pm 11.3 SSW 9 12 1018.6 - 0.0 - - - - - - -
31/03:30pm 11.4 SW 8 11 1018.6 - 0.0 - - - - - - -
31/03:00pm 11.7 SSW 8 11 1018.7 - 0.0 - - - - - - -
31/02:30pm 12.0 SW 8 11 1018.9 - 0.0 - - - - - - -
31/02:00pm 12.4 SSW 8 11 1019.0 - 0.0 - - - - - - -
31/01:30pm 14.2 SW 8 11 1019.1 - 0.0 - - - - - - -
31/01:00pm 14.6 SW 8 11 1019.4 - 0.0 - - - - - - -
31/12:30pm 13.9 SW 7 9 1019.8 - 0.0 - - - - - - -
31/12:00pm 13.7 SSW 7 9 1020.1 - 0.0 - - - - - - -
31/11:30am 12.9 SSW 6 8 1020.4 - 0.0 - - - - - - -
31/11:00am 12.9 WSW 3 5 1020.5 - 0.0 - - - - - - -
31/10:30am 11.8 SW 3 5 1020.6 - 0.0 - - - - - - -
31/10:00am 11.6 W 2 3 1020.8 - 0.0 - - - - - - -
31/09:30am 10.8 SSW 1 4 1021.0 - 0.0 - - - - - - -
31/09:00am 9.7 NE 1 2 1020.8 - 0.0 - - - - - - -
31/08:30am 7.7 CALM 0 1 1021.0 - 0.0 - - - - - - -
31/08:00am 6.3 SSW 1 2 1021.0 - 0.0 - - - - - - -

Other Formats:

Comma delimited format used in spreadsheet applications
http://www.bom.gov.au/fwo/IDV60701/IDV60701.94911.axf

JavaScript Object Notation format (JSON) in row-major order
http://www.bom.gov.au/fwo/IDV60701/IDV60701.94911.json